Time;durP1;ratioP1;P1;durP2;ratioP2;P2;SDS_P1;SDS_P2;PMS_P1;PMS_P2;Temp;Humidity;BMP_temperature;BMP_pressure;BME280_temperature;BME280_humidity;BME280_pressure;Samples;Min_cycle;Max_cycle;Signal;HPM_P1;HPM_P2
2021/12/29 00:00:29;;;;;;;22.43;11.87;;;1.20;99.90;;;;;;4194070;28;20269;-60
2021/12/29 00:02:30;;;;;;;21.07;11.23;;;1.20;99.90;;;;;;4192584;28;20319;-57
2021/12/29 00:04:32;;;;;;;22.03;12.07;;;1.20;99.90;;;;;;4193989;28;20327;-53
2021/12/29 00:06:33;;;;;;;22.73;12.23;;;1.10;99.90;;;;;;4192761;28;20741;-57
2021/12/29 00:08:34;;;;;;;21.77;12.30;;;1.20;99.90;;;;;;4193957;28;20866;-57
2021/12/29 00:10:36;;;;;;;20.17;11.67;;;1.20;99.90;;;;;;4193173;28;20276;-57
2021/12/29 00:12:42;;;;;;;23.13;12.17;;;1.20;99.90;;;;;;4192921;28;20662;-63
2021/12/29 00:14:43;;;;;;;24.80;12.70;;;1.20;99.90;;;;;;4193134;28;20261;-56
2021/12/29 00:16:44;;;;;;;20.80;11.23;;;1.20;99.90;;;;;;4192139;28;20763;-57
2021/12/29 00:18:45;;;;;;;23.83;11.97;;;1.20;99.90;;;;;;4193636;28;20271;-58
2021/12/29 00:20:46;;;;;;;21.17;11.93;;;1.20;99.90;;;;;;4192376;28;20269;-57
2021/12/29 00:22:47;;;;;;;24.27;11.33;;;1.20;99.90;;;;;;4193910;28;20753;-56
2021/12/29 00:24:48;;;;;;;20.33;11.33;;;1.20;99.90;;;;;;4192489;28;20269;-56
2021/12/29 00:26:50;;;;;;;21.07;11.53;;;1.20;99.90;;;;;;4193536;28;20307;-57
2021/12/29 00:28:51;;;;;;;21.47;11.57;;;1.20;99.90;;;;;;4192191;28;20265;-57
2021/12/29 00:30:53;;;;;;;18.73;11.13;;;1.20;99.90;;;;;;4193820;28;20269;-54
2021/12/29 00:32:55;;;;;;;21.73;12.10;;;1.20;99.90;;;;;;4192074;28;20819;-54
2021/12/29 00:34:56;;;;;;;21.20;11.77;;;1.20;99.90;;;;;;4194036;28;20269;-54
2021/12/29 00:36:58;;;;;;;22.13;11.80;;;1.20;99.90;;;;;;4192510;28;20291;-56
2021/12/29 00:38:59;;;;;;;23.40;11.63;;;1.20;99.90;;;;;;4193053;28;20807;-56
2021/12/29 00:41:00;;;;;;;17.87;10.87;;;1.20;99.90;;;;;;4192597;28;20293;-56
2021/12/29 00:43:03;;;;;;;26.03;11.90;;;1.20;99.90;;;;;;4192531;28;20285;-50
2021/12/29 00:45:06;;;;;;;19.87;11.60;;;1.20;99.90;;;;;;4192692;28;20307;-54
2021/12/29 00:47:09;;;;;;;23.37;11.73;;;1.20;99.90;;;;;;4192345;28;20307;-59
2021/12/29 00:49:12;;;;;;;21.07;11.63;;;1.20;99.90;;;;;;4193442;28;20354;-57
2021/12/29 00:51:13;;;;;;;22.87;12.20;;;1.20;99.90;;;;;;4191896;28;20684;-56
2021/12/29 00:53:16;;;;;;;21.43;11.47;;;1.10;99.90;;;;;;4192966;28;20283;-56
2021/12/29 00:55:17;;;;;;;22.00;11.37;;;1.20;99.90;;;;;;4191827;28;20838;-58
2021/12/29 00:57:19;;;;;;;24.13;11.90;;;1.20;99.90;;;;;;4193389;28;20274;-56
2021/12/29 00:59:20;;;;;;;23.03;12.97;;;1.10;99.90;;;;;;4191914;28;20846;-55
2021/12/29 01:01:21;;;;;;;20.10;11.97;;;1.10;99.90;;;;;;4193117;28;20331;-50
2021/12/29 01:03:23;;;;;;;18.47;10.77;;;1.10;99.90;;;;;;4191718;28;20265;-58
2021/12/29 01:05:25;;;;;;;20.80;12.40;;;1.10;99.90;;;;;;4192926;28;20311;-55
2021/12/29 01:07:26;;;;;;;24.53;12.10;;;1.10;99.90;;;;;;4191797;28;20326;-57
2021/12/29 01:09:28;;;;;;;21.23;12.03;;;1.10;99.90;;;;;;4193355;28;20273;-58
2021/12/29 01:11:29;;;;;;;21.50;11.73;;;1.10;99.90;;;;;;4192074;28;20266;-55
2021/12/29 01:13:33;;;;;;;22.03;11.47;;;1.10;99.90;;;;;;4192605;28;20293;-57
2021/12/29 01:15:56;;;;;;;20.70;12.03;;;1.10;99.90;;;;;;4191789;28;20270;-57
2021/12/29 01:17:59;;;;;;;23.73;11.83;;;1.10;99.90;;;;;;4192030;28;20279;-56
2021/12/29 01:20:00;;;;;;;22.07;11.60;;;1.00;99.90;;;;;;4191786;28;20282;-57
2021/12/29 01:22:03;;;;;;;22.20;12.40;;;1.10;99.90;;;;;;4192014;28;20296;-61
2021/12/29 01:24:06;;;;;;;21.70;11.43;;;1.10;99.90;;;;;;4191816;28;20281;-57
2021/12/29 01:26:07;;;;;;;22.67;12.23;;;1.10;99.90;;;;;;4191488;28;20334;-55
2021/12/29 01:28:08;;;;;;;21.97;12.00;;;1.10;99.90;;;;;;4192711;28;20273;-55
2021/12/29 01:30:11;;;;;;;19.70;11.57;;;1.10;99.90;;;;;;4191092;28;20261;-53
2021/12/29 01:32:12;;;;;;;27.70;12.57;;;1.10;99.90;;;;;;4192573;28;20338;-53
2021/12/29 01:34:14;;;;;;;22.50;11.07;;;1.10;99.90;;;;;;4191482;28;20293;-54
2021/12/29 01:36:15;;;;;;;22.53;12.47;;;1.10;99.90;;;;;;4192426;28;20261;-56
2021/12/29 01:38:16;;;;;;;25.17;12.33;;;1.10;99.90;;;;;;4191127;28;20281;-56
2021/12/29 01:40:18;;;;;;;23.43;12.47;;;1.10;99.90;;;;;;4192538;28;20347;-55
2021/12/29 01:42:19;;;;;;;23.10;12.30;;;1.10;99.90;;;;;;4191566;28;20319;-52
2021/12/29 01:44:24;;;;;;;26.10;13.30;;;1.00;99.90;;;;;;4192390;28;20269;-54
2021/12/29 01:46:25;;;;;;;23.27;11.67;;;1.00;99.90;;;;;;4191105;28;20651;-58
2021/12/29 01:48:26;;;;;;;24.07;12.00;;;1.10;99.90;;;;;;4192200;28;20269;-57
2021/12/29 01:50:31;;;;;;;21.07;11.87;;;1.00;99.90;;;;;;4191830;28;20338;-51
2021/12/29 01:52:37;;;;;;;24.47;13.10;;;1.10;99.90;;;;;;4191819;28;20769;-57
2021/12/29 01:54:39;;;;;;;21.23;12.47;;;1.00;99.90;;;;;;4190960;28;20749;-57
2021/12/29 01:56:42;;;;;;;20.37;11.43;;;1.10;99.90;;;;;;4191026;28;20854;-55
2021/12/29 01:58:43;;;;;;;23.77;12.37;;;1.10;99.90;;;;;;4191391;28;20310;-52
2021/12/29 02:00:45;;;;;;;21.23;12.23;;;1.10;99.90;;;;;;4191502;28;20262;-57
2021/12/29 02:02:46;;;;;;;23.23;12.93;;;1.10;99.90;;;;;;4192033;28;20660;-58
2021/12/29 02:04:48;;;;;;;22.47;12.27;;;1.00;99.90;;;;;;4191061;28;21062;-52
2021/12/29 02:06:49;;;;;;;24.50;12.67;;;1.00;99.90;;;;;;4192170;28;20269;-56
2021/12/29 02:08:53;;;;;;;21.70;12.43;;;1.00;99.90;;;;;;4191034;28;20330;-57
2021/12/29 02:10:57;;;;;;;22.80;11.57;;;1.10;99.90;;;;;;4192077;28;20274;-56
2021/12/29 02:13:01;;;;;;;21.80;12.27;;;1.00;99.90;;;;;;4190592;28;20290;-58
2021/12/29 02:15:04;;;;;;;22.27;11.90;;;1.00;99.90;;;;;;4192168;28;20281;-55
2021/12/29 02:17:06;;;;;;;25.77;13.17;;;1.10;99.90;;;;;;4190330;28;20273;-56
2021/12/29 02:19:11;;;;;;;24.70;12.37;;;1.10;99.90;;;;;;4191442;28;20307;-54
2021/12/29 02:21:19;;;;;;;23.40;12.10;;;1.10;99.90;;;;;;4190527;28;20327;-54
2021/12/29 02:23:34;;;;;;;21.43;11.43;;;1.10;99.90;;;;;;4192050;28;20265;-56
2021/12/29 02:25:47;;;;;;;21.67;12.27;;;1.10;99.90;;;;;;4190709;28;20269;-56
2021/12/29 02:27:55;;;;;;;26.70;12.97;;;1.10;99.90;;;;;;4191707;28;20273;-53
2021/12/29 02:29:56;;;;;;;23.70;12.70;;;1.10;99.90;;;;;;4190538;28;20261;-55
2021/12/29 02:31:57;;;;;;;24.67;13.43;;;1.10;99.90;;;;;;4191652;28;20262;-58
2021/12/29 02:33:59;;;;;;;25.87;13.40;;;1.10;99.90;;;;;;4190206;28;20684;-55
2021/12/29 02:36:01;;;;;;;22.13;12.43;;;1.10;99.90;;;;;;4191209;28;20307;-53
2021/12/29 02:38:07;;;;;;;26.00;13.60;;;1.10;99.90;;;;;;4189954;28;20238;-52
2021/12/29 02:40:10;;;;;;;24.30;12.93;;;1.10;99.90;;;;;;4191558;28;20799;-57
2021/12/29 02:42:12;;;;;;;24.60;13.00;;;1.20;99.90;;;;;;4190421;28;20257;-55
2021/12/29 02:44:18;;;;;;;22.80;13.43;;;1.20;99.90;;;;;;4190338;28;20327;-51
2021/12/29 02:46:19;;;;;;;25.20;13.40;;;1.20;99.90;;;;;;4190430;28;20276;-56
2021/12/29 02:48:23;;;;;;;20.93;11.57;;;1.20;99.90;;;;;;4190327;28;20335;-54
2021/12/29 02:50:24;;;;;;;21.57;12.67;;;1.20;99.90;;;;;;4190769;28;20338;-55
2021/12/29 02:52:26;;;;;;;21.53;11.97;;;1.20;99.90;;;;;;4189863;28;20308;-57
2021/12/29 02:54:27;;;;;;;23.83;12.83;;;1.20;99.90;;;;;;4190915;28;20278;-57
2021/12/29 02:56:29;;;;;;;22.07;12.17;;;1.20;99.90;;;;;;4190339;28;20350;-57
2021/12/29 02:58:31;;;;;;;20.70;11.67;;;1.20;99.90;;;;;;4191142;28;20331;-62
2021/12/29 03:00:32;;;;;;;23.93;12.03;;;1.20;99.90;;;;;;4189680;28;20588;-53
2021/12/29 03:02:34;;;;;;;21.23;11.67;;;1.20;99.90;;;;;;4191319;28;20261;-55
2021/12/29 03:04:35;;;;;;;23.33;11.93;;;1.10;99.90;;;;;;4189787;28;20265;-55
2021/12/29 03:06:36;;;;;;;22.13;11.40;;;1.10;99.90;;;;;;4190955;28;20653;-57
2021/12/29 03:08:38;;;;;;;19.50;11.43;;;1.10;99.90;;;;;;4190410;28;20914;-59
2021/12/29 03:10:40;;;;;;;19.77;11.07;;;1.10;99.90;;;;;;4190796;28;20269;-54
2021/12/29 03:12:41;;;;;;;21.30;12.13;;;1.10;99.90;;;;;;4189371;28;20350;-54
2021/12/29 03:14:53;;;;;;;22.23;12.17;;;1.10;99.90;;;;;;4190586;28;20273;-55
2021/12/29 03:16:54;;;;;;;20.73;11.97;;;1.10;99.90;;;;;;4189925;28;20310;-55
2021/12/29 03:18:55;;;;;;;24.87;11.70;;;1.10;99.90;;;;;;4190541;28;20307;-56
2021/12/29 03:20:57;;;;;;;22.57;11.80;;;1.10;99.90;;;;;;4190167;28;20266;-57
2021/12/29 03:22:59;;;;;;;21.30;11.67;;;1.10;99.90;;;;;;4190074;28;20330;-56
2021/12/29 03:25:00;;;;;;;20.93;11.47;;;1.10;99.90;;;;;;4189823;28;20270;-55
2021/12/29 03:27:01;;;;;;;22.53;11.47;;;1.10;99.90;;;;;;4190096;28;21066;-56
2021/12/29 03:29:04;;;;;;;23.13;12.10;;;1.10;99.90;;;;;;4189935;28;20307;-55
2021/12/29 03:31:10;;;;;;;21.43;11.93;;;1.10;99.90;;;;;;4189526;28;20262;-58
2021/12/29 03:33:12;;;;;;;26.07;13.00;;;1.10;99.90;;;;;;4190772;28;20347;-54
2021/12/29 03:35:13;;;;;;;20.23;11.60;;;1.10;99.90;;;;;;4189807;28;20381;-58
2021/12/29 03:37:14;;;;;;;24.43;12.17;;;1.10;99.90;;;;;;4190401;28;20273;-51
2021/12/29 03:39:17;;;;;;;22.90;11.60;;;1.00;99.90;;;;;;4189784;28;20269;-54
2021/12/29 03:41:19;;;;;;;20.50;11.13;;;1.00;99.90;;;;;;4190544;28;20866;-58
2021/12/29 03:43:21;;;;;;;21.70;11.33;;;1.00;99.90;;;;;;4189189;28;20277;-55
2021/12/29 03:45:23;;;;;;;24.17;13.03;;;1.00;99.90;;;;;;4190573;28;20680;-57
2021/12/29 03:47:24;;;;;;;24.47;12.93;;;1.00;99.90;;;;;;4188141;28;20327;-52
2021/12/29 03:49:25;;;;;;;26.70;12.53;;;1.00;99.90;;;;;;4190091;28;20277;-58
2021/12/29 03:51:26;;;;;;;26.43;12.43;;;1.00;99.90;;;;;;4189511;28;20338;-55
2021/12/29 03:53:28;;;;;;;23.80;12.80;;;1.00;99.90;;;;;;4189726;28;21162;-52
2021/12/29 03:55:29;;;;;;;22.87;12.17;;;1.00;99.90;;;;;;4189769;28;20261;-56
2021/12/29 03:57:30;;;;;;;23.20;12.17;;;1.00;99.90;;;;;;4189345;28;20323;-59
2021/12/29 03:59:31;;;;;;;21.73;12.17;;;1.00;99.90;;;;;;4190288;28;20326;-56
2021/12/29 04:01:32;;;;;;;25.47;12.63;;;1.00;99.90;;;;;;4189114;28;20262;-54
2021/12/29 04:03:34;;;;;;;25.87;12.17;;;1.00;99.90;;;;;;4190887;28;20262;-55
2021/12/29 04:05:35;;;;;;;28.30;13.20;;;1.00;99.90;;;;;;4188952;28;20757;-57
2021/12/29 04:07:36;;;;;;;25.80;12.63;;;1.00;99.90;;;;;;4190506;28;20257;-53
2021/12/29 04:09:38;;;;;;;23.23;12.33;;;1.00;99.90;;;;;;4189705;28;20266;-55
2021/12/29 04:11:39;;;;;;;26.00;14.63;;;1.00;99.90;;;;;;4190233;28;20266;-57
2021/12/29 04:13:40;;;;;;;23.50;12.47;;;1.00;99.90;;;;;;4189031;28;20338;-54
2021/12/29 04:15:42;;;;;;;24.57;12.67;;;1.00;99.90;;;;;;4190233;28;20353;-56
2021/12/29 04:17:45;;;;;;;22.20;11.53;;;1.00;99.90;;;;;;4188902;28;20265;-57
2021/12/29 04:22:08;;;;;;;23.25;12.00;;;1.00;99.90;;;;;;4189515;28;20299;-54
2021/12/29 04:24:10;;;;;;;24.00;12.03;;;1.00;99.90;;;;;;4190105;28;20081;-56
2021/12/29 04:26:11;;;;;;;23.20;12.97;;;1.00;99.90;;;;;;4189703;28;20265;-55
2021/12/29 04:28:20;;;;;;;24.80;12.13;;;1.00;99.90;;;;;;4189837;28;20323;-55
2021/12/29 04:30:23;;;;;;;23.97;12.13;;;1.00;99.90;;;;;;4189466;28;20735;-55
2021/12/29 04:32:24;;;;;;;24.03;12.60;;;1.00;99.90;;;;;;4189776;28;20265;-56
2021/12/29 04:34:25;;;;;;;23.27;12.13;;;1.00;99.90;;;;;;4189540;28;20343;-54
2021/12/29 04:36:26;;;;;;;27.13;13.97;;;1.00;99.90;;;;;;4189297;28;20261;-54
2021/12/29 04:38:28;;;;;;;21.20;12.37;;;1.00;99.90;;;;;;4189844;28;20327;-51
2021/12/29 04:40:29;;;;;;;23.00;12.43;;;1.00;99.90;;;;;;4191243;28;20277;-56
2021/12/29 04:42:30;;;;;;;25.63;13.70;;;1.00;99.90;;;;;;4193712;28;20269;-58
2021/12/29 04:44:31;;;;;;;24.60;12.70;;;1.00;99.90;;;;;;4192076;28;20261;-55
2021/12/29 04:46:38;;;;;;;26.83;13.70;;;1.00;99.90;;;;;;4193689;28;20265;-58
2021/12/29 04:48:46;;;;;;;26.43;13.50;;;1.00;99.90;;;;;;4191890;28;20308;-56
2021/12/29 04:51:05;;;;;;;27.07;14.20;;;1.00;99.90;;;;;;4192874;28;20261;-55
2021/12/29 04:53:08;;;;;;;27.07;13.40;;;1.00;99.90;;;;;;4191700;28;20305;-55
2021/12/29 04:55:10;;;;;;;30.80;14.97;;;1.00;99.90;;;;;;4192853;28;20273;-58
2021/12/29 04:57:11;;;;;;;31.07;14.00;;;0.90;99.90;;;;;;4191790;28;20278;-55
2021/12/29 04:59:15;;;;;;;25.67;13.40;;;1.00;99.90;;;;;;4193169;28;20262;-54
2021/12/29 05:01:17;;;;;;;27.57;13.83;;;1.00;99.90;;;;;;4190761;28;20289;-60
2021/12/29 05:03:20;;;;;;;27.57;13.40;;;1.00;99.90;;;;;;4192851;28;20281;-54
2021/12/29 05:10:03;;;;;;;26.57;13.83;;;1.00;99.90;;;;;;4191751;28;20327;-51
2021/12/29 05:12:04;;;;;;;27.07;13.07;;;1.00;99.90;;;;;;4192122;28;20342;-55
2021/12/29 05:14:06;;;;;;;29.37;13.63;;;1.00;99.90;;;;;;4191298;28;20293;-53
2021/12/29 05:16:07;;;;;;;28.03;13.53;;;1.00;99.90;;;;;;4192804;28;20322;-59
2021/12/29 05:18:10;;;;;;;25.63;13.50;;;1.00;99.90;;;;;;4192094;28;20273;-56
2021/12/29 05:20:11;;;;;;;29.27;13.20;;;1.00;99.90;;;;;;4192353;28;20257;-52
2021/12/29 05:22:12;;;;;;;27.43;15.20;;;1.00;99.90;;;;;;4192170;28;20265;-55
2021/12/29 05:24:13;;;;;;;27.53;14.60;;;1.00;99.90;;;;;;4191860;28;20806;-55
2021/12/29 05:26:14;;;;;;;28.13;15.27;;;1.00;99.90;;;;;;4191855;28;20751;-54
2021/12/29 05:28:20;;;;;;;30.73;14.43;;;1.00;99.90;;;;;;4191666;28;20303;-58
2021/12/29 05:30:21;;;;;;;27.10;14.30;;;1.00;99.90;;;;;;4192081;28;20266;-59
2021/12/29 05:32:22;;;;;;;30.97;15.50;;;1.00;99.90;;;;;;4190825;28;20265;-55
2021/12/29 05:34:23;;;;;;;30.17;14.47;;;1.00;99.90;;;;;;4192103;28;20704;-58
2021/12/29 05:36:25;;;;;;;27.67;13.90;;;1.00;99.90;;;;;;4191131;28;20269;-58
2021/12/29 05:38:26;;;;;;;28.43;14.50;;;1.00;99.90;;;;;;4192570;28;20319;-59
2021/12/29 05:40:28;;;;;;;29.60;14.30;;;1.00;99.90;;;;;;4191352;28;20270;-58
2021/12/29 05:42:29;;;;;;;28.87;14.17;;;1.00;99.90;;;;;;4192647;28;20270;-59
2021/12/29 05:44:30;;;;;;;27.17;14.50;;;1.00;99.90;;;;;;4190989;28;20672;-57
2021/12/29 05:46:32;;;;;;;25.47;13.03;;;1.00;99.90;;;;;;4191853;28;20269;-58
2021/12/29 05:48:34;;;;;;;31.00;15.70;;;1.00;99.90;;;;;;4190578;28;20654;-58
2021/12/29 05:50:35;;;;;;;25.63;13.70;;;1.00;99.90;;;;;;4192056;28;20273;-52
2021/12/29 05:52:36;;;;;;;28.97;14.07;;;1.00;99.90;;;;;;4190439;28;20257;-57
2021/12/29 05:54:37;;;;;;;28.53;14.63;;;1.00;99.90;;;;;;4191275;28;20332;-56
2021/12/29 05:56:40;;;;;;;31.17;14.53;;;1.00;99.90;;;;;;4191539;28;20270;-59
2021/12/29 05:58:41;;;;;;;30.93;14.50;;;1.00;99.90;;;;;;4190375;28;20307;-54
2021/12/29 06:00:43;;;;;;;25.60;14.50;;;0.90;99.90;;;;;;4191563;28;20315;-57
2021/12/29 06:02:45;;;;;;;26.83;14.50;;;1.00;99.90;;;;;;4189387;28;20285;-53
2021/12/29 06:04:46;;;;;;;27.83;14.43;;;1.00;99.90;;;;;;4191707;28;20307;-54
2021/12/29 06:06:47;;;;;;;28.97;14.33;;;1.00;99.90;;;;;;4190012;28;20269;-56
2021/12/29 06:08:48;;;;;;;29.20;14.00;;;1.00;99.90;;;;;;4192035;28;20270;-55
2021/12/29 06:10:50;;;;;;;28.23;14.50;;;1.00;99.90;;;;;;4190581;28;20311;-57
2021/12/29 06:12:51;;;;;;;27.70;13.43;;;1.00;99.90;;;;;;4191705;28;20323;-57
2021/12/29 06:14:52;;;;;;;29.80;13.37;;;1.00;99.90;;;;;;4189307;28;21229;-56
2021/12/29 06:16:53;;;;;;;28.10;14.37;;;1.00;99.90;;;;;;4191947;28;20262;-53
2021/12/29 06:18:55;;;;;;;31.17;15.50;;;0.90;99.90;;;;;;4190507;28;20273;-54
2021/12/29 06:20:56;;;;;;;27.37;14.77;;;0.90;99.90;;;;;;4191731;28;20265;-56
2021/12/29 06:22:57;;;;;;;30.47;15.00;;;0.90;99.90;;;;;;4190903;28;20254;-55
2021/12/29 06:24:58;;;;;;;29.30;14.63;;;0.90;99.90;;;;;;4190676;28;20273;-61
2021/12/29 06:26:59;;;;;;;28.17;13.87;;;0.90;99.90;;;;;;4190308;28;20741;-57
2021/12/29 06:29:01;;;;;;;27.80;14.23;;;1.00;99.90;;;;;;4190369;28;20343;-57
2021/12/29 06:31:02;;;;;;;29.03;15.27;;;1.00;99.90;;;;;;4191173;28;20331;-57
2021/12/29 06:33:03;;;;;;;31.40;14.43;;;1.00;99.90;;;;;;4189450;28;20331;-57
2021/12/29 06:35:07;;;;;;;28.53;14.97;;;1.00;99.90;;;;;;4191247;28;20285;-56
2021/12/29 06:37:09;;;;;;;29.47;14.87;;;1.00;99.90;;;;;;4189715;28;20261;-57
2021/12/29 06:39:10;;;;;;;30.77;15.10;;;1.00;99.90;;;;;;4191466;28;20668;-57
2021/12/29 06:41:11;;;;;;;31.70;17.17;;;1.00;99.90;;;;;;4190375;28;20323;-58
2021/12/29 06:43:12;;;;;;;29.47;14.93;;;1.00;99.90;;;;;;4191527;28;21395;-57
2021/12/29 06:45:13;;;;;;;32.80;16.00;;;1.00;99.90;;;;;;4189041;28;20327;-55
2021/12/29 06:47:15;;;;;;;29.73;14.80;;;1.00;99.90;;;;;;4190937;28;20339;-56
2021/12/29 06:49:16;;;;;;;30.27;15.57;;;1.10;99.90;;;;;;4189833;28;20265;-57
2021/12/29 06:51:17;;;;;;;31.00;15.40;;;1.10;99.90;;;;;;4190791;28;20265;-58
2021/12/29 06:53:19;;;;;;;29.60;14.23;;;1.10;99.90;;;;;;4189617;28;20299;-57
2021/12/29 06:55:20;;;;;;;29.87;15.13;;;1.10;99.90;;;;;;4190450;28;21355;-65
2021/12/29 06:57:21;;;;;;;32.63;16.77;;;1.10;99.90;;;;;;4190229;28;20273;-58
2021/12/29 06:59:22;;;;;;;29.13;15.50;;;1.10;99.90;;;;;;4189666;28;20267;-58
2021/12/29 07:01:23;;;;;;;27.97;15.23;;;1.10;99.90;;;;;;4191030;28;20269;-56
2021/12/29 07:03:26;;;;;;;31.90;16.60;;;1.10;99.90;;;;;;4189665;28;20257;-58
2021/12/29 07:05:27;;;;;;;35.27;15.97;;;1.10;99.90;;;;;;4190622;28;20273;-59
2021/12/29 07:07:28;;;;;;;35.07;16.30;;;1.20;99.90;;;;;;4189868;28;20269;-61
2021/12/29 07:09:29;;;;;;;30.77;15.70;;;1.10;99.90;;;;;;4190649;28;20409;-58
2021/12/29 07:11:31;;;;;;;34.10;15.87;;;1.10;99.90;;;;;;4189601;28;20265;-57
2021/12/29 07:13:32;;;;;;;29.27;14.83;;;1.20;99.90;;;;;;4190846;28;20330;-58
2021/12/29 07:15:33;;;;;;;29.40;15.10;;;1.20;99.90;;;;;;4189123;28;20278;-58
2021/12/29 07:17:34;;;;;;;27.77;14.43;;;1.20;99.90;;;;;;4190684;28;20261;-59
2021/12/29 07:19:35;;;;;;;26.57;14.50;;;1.20;99.90;;;;;;4189266;28;20693;-58
2021/12/29 07:21:37;;;;;;;28.40;14.57;;;1.20;99.90;;;;;;4190477;28;20323;-58
2021/12/29 07:23:38;;;;;;;30.37;15.07;;;1.20;99.90;;;;;;4189285;28;20350;-60
2021/12/29 07:25:39;;;;;;;28.27;14.07;;;1.30;99.90;;;;;;4189941;28;20265;-58
2021/12/29 07:27:40;;;;;;;27.43;14.17;;;1.30;99.90;;;;;;4189802;28;20265;-59
2021/12/29 07:29:42;;;;;;;29.13;14.03;;;1.30;99.90;;;;;;4189810;28;20318;-57
2021/12/29 07:31:43;;;;;;;30.07;14.97;;;1.30;99.90;;;;;;4188877;28;20323;-58
2021/12/29 07:33:45;;;;;;;24.90;14.20;;;1.40;99.90;;;;;;4189219;28;20349;-57
2021/12/29 07:35:46;;;;;;;34.87;15.43;;;1.60;99.90;;;;;;4190448;28;20664;-56
2021/12/29 07:37:47;;;;;;;29.83;15.07;;;1.70;99.90;;;;;;4188957;28;20323;-57
2021/12/29 07:39:48;;;;;;;28.03;14.50;;;1.80;99.90;;;;;;4190505;28;20350;-59
2021/12/29 07:41:50;;;;;;;27.80;14.97;;;1.70;99.90;;;;;;4189415;28;20799;-58
2021/12/29 07:43:52;;;;;;;30.43;14.73;;;1.70;99.90;;;;;;4190578;28;20323;-57
2021/12/29 07:45:55;;;;;;;25.10;13.83;;;1.60;99.90;;;;;;4189179;28;20281;-57
2021/12/29 07:47:56;;;;;;;26.57;14.13;;;1.60;99.90;;;;;;4190023;28;20315;-52
2021/12/29 07:49:57;;;;;;;25.17;13.90;;;1.50;99.90;;;;;;4189228;28;20932;-59
2021/12/29 07:51:58;;;;;;;30.63;15.07;;;1.50;99.90;;;;;;4190618;28;20399;-59
2021/12/29 07:53:59;;;;;;;26.23;13.97;;;1.40;99.90;;;;;;4188476;28;20355;-58
2021/12/29 07:56:01;;;;;;;26.60;14.20;;;1.50;99.90;;;;;;4189682;28;21197;-58
2021/12/29 07:58:02;;;;;;;27.87;15.07;;;1.50;99.90;;;;;;4189307;28;20246;-60
2021/12/29 08:00:04;;;;;;;26.47;15.03;;;1.40;99.90;;;;;;4189434;28;20402;-57
2021/12/29 08:02:05;;;;;;;30.10;15.87;;;1.40;99.90;;;;;;4189601;28;20791;-58
2021/12/29 08:04:12;;;;;;;32.47;15.67;;;1.50;99.90;;;;;;4189008;28;20277;-57
2021/12/29 08:06:16;;;;;;;29.53;15.03;;;1.50;99.90;;;;;;4189569;28;20273;-58
2021/12/29 08:08:17;;;;;;;26.03;14.23;;;1.50;99.90;;;;;;4188647;28;20327;-58
2021/12/29 08:10:18;;;;;;;26.93;13.47;;;1.50;99.90;;;;;;4190525;28;20277;-58
2021/12/29 08:12:19;;;;;;;27.90;15.40;;;1.50;99.90;;;;;;4188744;28;20277;-57
2021/12/29 08:14:20;;;;;;;26.93;14.70;;;1.50;99.90;;;;;;4190127;28;20411;-58
2021/12/29 08:16:22;;;;;;;28.10;15.80;;;1.50;99.90;;;;;;4192278;28;20991;-59
2021/12/29 08:18:23;;;;;;;29.23;15.17;;;1.60;99.90;;;;;;4193174;28;20303;-57
2021/12/29 08:20:24;;;;;;;30.50;14.83;;;1.60;99.90;;;;;;4191904;28;20273;-57
2021/12/29 08:22:26;;;;;;;28.10;15.13;;;1.60;99.90;;;;;;4192143;28;20292;-57
2021/12/29 08:24:27;;;;;;;28.67;14.27;;;1.60;99.90;;;;;;4192017;28;20356;-58
2021/12/29 08:26:28;;;;;;;27.73;14.63;;;1.60;99.90;;;;;;4193306;28;20285;-55
2021/12/29 08:28:29;;;;;;;26.77;14.40;;;1.60;99.90;;;;;;4192072;28;20253;-58
2021/12/29 08:30:31;;;;;;;29.40;15.57;;;1.60;99.90;;;;;;4192335;28;20269;-54
2021/12/29 08:32:32;;;;;;;28.83;14.40;;;1.60;99.90;;;;;;4192273;28;20959;-57
2021/12/29 08:34:33;;;;;;;27.73;14.63;;;1.70;99.90;;;;;;4192478;28;20332;-58
2021/12/29 08:36:34;;;;;;;30.33;15.33;;;1.70;99.90;;;;;;4192776;28;20322;-56
2021/12/29 08:38:35;;;;;;;30.50;15.90;;;1.70;99.90;;;;;;4191927;28;20266;-57
2021/12/29 08:40:37;;;;;;;28.07;13.90;;;1.80;99.90;;;;;;4193188;28;20307;-56
2021/12/29 08:42:38;;;;;;;27.33;15.17;;;1.80;99.90;;;;;;4191084;28;20270;-57
2021/12/29 08:44:40;;;;;;;32.67;16.67;;;1.80;99.90;;;;;;4192653;28;20334;-56
2021/12/29 08:46:41;;;;;;;29.87;15.50;;;1.80;99.90;;;;;;4191318;28;20695;-59
2021/12/29 08:48:42;;;;;;;32.23;16.17;;;1.80;99.90;;;;;;4192889;28;20269;-59
2021/12/29 08:50:44;;;;;;;33.27;16.17;;;1.90;99.90;;;;;;4191320;28;20265;-58
2021/12/29 08:52:45;;;;;;;26.63;14.10;;;2.00;99.90;;;;;;4192604;28;20311;-56
2021/12/29 08:54:47;;;;;;;26.57;13.93;;;1.90;99.90;;;;;;4190870;28;20775;-58
2021/12/29 08:56:48;;;;;;;29.13;14.53;;;2.00;99.90;;;;;;4192645;28;20269;-58
2021/12/29 08:58:50;;;;;;;29.10;14.40;;;2.00;99.90;;;;;;4191497;28;20644;-54
2021/12/29 09:00:53;;;;;;;31.80;14.87;;;2.10;99.90;;;;;;4191813;28;20353;-58
2021/12/29 09:02:55;;;;;;;32.20;15.00;;;2.10;99.90;;;;;;4191382;28;20783;-54
2021/12/29 09:04:56;;;;;;;27.67;14.43;;;2.10;99.90;;;;;;4191783;28;20339;-58
2021/12/29 09:06:57;;;;;;;28.70;15.07;;;2.10;99.90;;;;;;4191855;28;20265;-58
2021/12/29 09:08:58;;;;;;;29.03;15.17;;;2.20;99.90;;;;;;4191487;28;20830;-58
2021/12/29 09:10:59;;;;;;;26.00;13.57;;;2.20;99.90;;;;;;4193037;28;20862;-57
2021/12/29 09:13:01;;;;;;;29.33;15.30;;;2.30;99.90;;;;;;4191244;28;20266;-58
2021/12/29 09:15:04;;;;;;;24.60;13.60;;;2.30;99.90;;;;;;4191980;28;20346;-57
2021/12/29 09:17:05;;;;;;;25.10;13.87;;;2.40;99.90;;;;;;4191566;28;20285;-58
2021/12/29 09:19:11;;;;;;;27.73;14.20;;;2.50;99.90;;;;;;4192342;28;20319;-57
2021/12/29 09:21:15;;;;;;;22.67;12.70;;;2.70;99.90;;;;;;4190727;28;20274;-57
2021/12/29 09:23:16;;;;;;;26.93;13.33;;;2.70;99.90;;;;;;4192178;28;20331;-58
2021/12/29 09:25:20;;;;;;;20.70;12.53;;;2.70;99.90;;;;;;4190836;28;20924;-58
2021/12/29 09:27:21;;;;;;;23.87;12.40;;;2.80;99.90;;;;;;4190630;28;20327;-57
2021/12/29 09:29:23;;;;;;;21.57;12.67;;;2.90;99.90;;;;;;4190438;28;20273;-59
2021/12/29 09:31:24;;;;;;;23.77;11.93;;;2.90;99.90;;;;;;4192082;28;20338;-58
2021/12/29 09:33:25;;;;;;;21.47;12.20;;;2.90;99.90;;;;;;4191289;28;21364;-58
2021/12/29 09:35:28;;;;;;;22.53;11.60;;;2.80;99.90;;;;;;4192114;28;21018;-59
2021/12/29 09:37:30;;;;;;;23.27;12.97;;;2.80;99.90;;;;;;4190526;28;20307;-57
2021/12/29 09:39:32;;;;;;;21.40;12.17;;;2.90;99.90;;;;;;4191369;28;20636;-60
2021/12/29 09:41:33;;;;;;;21.60;12.87;;;2.90;99.90;;;;;;4191912;28;20771;-58
2021/12/29 09:43:36;;;;;;;24.57;13.03;;;2.90;99.90;;;;;;4190823;28;20257;-58
2021/12/29 09:45:40;;;;;;;24.00;12.73;;;2.90;99.90;;;;;;4192123;28;20338;-59
2021/12/29 09:47:41;;;;;;;21.40;11.10;;;2.90;99.90;;;;;;4190145;28;20353;-56
2021/12/29 09:49:42;;;;;;;20.83;12.53;;;3.00;99.90;;;;;;4191854;28;20299;-54
2021/12/29 09:51:45;;;;;;;21.37;11.63;;;3.00;99.90;;;;;;4190898;28;20296;-58
2021/12/29 09:53:46;;;;;;;21.47;11.67;;;3.00;99.90;;;;;;4191388;28;20607;-58
2021/12/29 09:55:48;;;;;;;20.83;11.97;;;3.00;99.90;;;;;;4190240;28;20696;-59
2021/12/29 09:57:54;;;;;;;22.37;11.90;;;3.10;99.90;;;;;;4191559;28;20281;-55
2021/12/29 09:59:55;;;;;;;23.27;12.13;;;3.10;99.90;;;;;;4190369;28;20281;-57
2021/12/29 10:01:57;;;;;;;22.77;12.70;;;3.10;99.90;;;;;;4192064;28;20274;-63
2021/12/29 10:03:58;;;;;;;22.90;12.50;;;3.20;99.90;;;;;;4190169;28;20273;-54
2021/12/29 10:06:02;;;;;;;20.10;11.80;;;3.20;99.90;;;;;;4191311;28;20273;-61
2021/12/29 10:08:07;;;;;;;21.37;12.00;;;3.20;99.90;;;;;;4190527;28;20246;-58
2021/12/29 10:10:19;;;;;;;23.47;12.60;;;3.30;99.90;;;;;;4191282;28;20684;-59
2021/12/29 10:12:22;;;;;;;28.90;15.80;;;3.40;99.90;;;;;;4190666;28;20269;-58
2021/12/29 10:14:23;;;;;;;20.90;12.33;;;3.40;99.90;;;;;;4190473;28;20388;-58
2021/12/29 10:16:29;;;;;;;24.63;12.90;;;3.50;99.90;;;;;;4190547;28;20670;-58
2021/12/29 10:18:32;;;;;;;21.87;12.03;;;3.50;99.90;;;;;;4190526;28;20282;-60
2021/12/29 10:20:43;;;;;;;18.97;11.23;;;3.60;99.90;;;;;;4190786;28;20262;-59
2021/12/29 10:22:54;;;;;;;;;;;3.60;99.90;;;;;;4190996;28;20307;-59
2021/12/29 10:25:11;;;;;;;21.40;11.27;;;3.70;99.90;;;;;;4190663;28;20266;-60
2021/12/29 10:27:18;;;;;;;21.70;12.00;;;3.80;99.90;;;;;;4190435;28;20024;-65
2021/12/29 10:29:20;;;;;;;21.93;12.00;;;3.80;99.90;;;;;;4190211;28;20657;-58
2021/12/29 10:31:31;;;;;;;24.37;13.17;;;3.80;99.90;;;;;;4190124;28;20257;-58
2021/12/29 10:33:40;;;;;;;21.85;11.93;;;3.80;99.90;;;;;;4190694;28;20400;-57
2021/12/29 10:35:41;;;;;;;23.37;13.33;;;3.80;99.90;;;;;;4189944;28;20075;-58